sensor_id;sensor_type;location;lat;lon;timestamp;pressure;altitude;pressure_sealevel;temperature;humidity
50242;BME280;36126;43.222;27.874;2022-07-15T00:01:56;101114.59;;;19.54;100.00
50242;BME280;36126;43.222;27.874;2022-07-15T00:04:22;101109.59;;;19.31;100.00
50242;BME280;36126;43.222;27.874;2022-07-15T00:06:48;101094.13;;;19.18;100.00
50242;BME280;36126;43.222;27.874;2022-07-15T00:09:14;101114.41;;;19.20;100.00
50242;BME280;36126;43.222;27.874;2022-07-15T00:11:39;101107.94;;;19.09;100.00
50242;BME280;36126;43.222;27.874;2022-07-15T00:14:05;101083.19;;;18.91;100.00
50242;BME280;36126;43.222;27.874;2022-07-15T00:16:30;101107.63;;;18.85;100.00
50242;BME280;36126;43.222;27.874;2022-07-15T00:18:56;101098.63;;;18.78;100.00
50242;BME280;36126;43.222;27.874;2022-07-15T00:21:22;101096.66;;;18.83;100.00
50242;BME280;36126;43.222;27.874;2022-07-15T00:23:48;101102.34;;;18.99;100.00
50242;BME280;36126;43.222;27.874;2022-07-15T00:26:13;101099.16;;;19.26;100.00
50242;BME280;36126;43.222;27.874;2022-07-15T00:28:39;101080.06;;;18.97;100.00
50242;BME280;36126;43.222;27.874;2022-07-15T00:31:04;101070.78;;;19.02;100.00
50242;BME280;36126;43.222;27.874;2022-07-15T00:33:30;101103.13;;;19.20;100.00
50242;BME280;36126;43.222;27.874;2022-07-15T00:35:56;101100.59;;;19.18;100.00
50242;BME280;36126;43.222;27.874;2022-07-15T00:38:21;101092.78;;;18.95;100.00
50242;BME280;36126;43.222;27.874;2022-07-15T00:40:49;101088.81;;;18.96;100.00
50242;BME280;36126;43.222;27.874;2022-07-15T00:43:16;101093.03;;;18.93;100.00
50242;BME280;36126;43.222;27.874;2022-07-15T00:45:42;101093.31;;;18.97;100.00
50242;BME280;36126;43.222;27.874;2022-07-15T00:48:08;101094.44;;;18.85;100.00
50242;BME280;36126;43.222;27.874;2022-07-15T00:50:34;101087.41;;;18.88;100.00
50242;BME280;36126;43.222;27.874;2022-07-15T00:53:04;101094.41;;;18.80;100.00
50242;BME280;36126;43.222;27.874;2022-07-15T00:55:32;101085.41;;;18.73;100.00
50242;BME280;36126;43.222;27.874;2022-07-15T00:58:03;101066.00;;;18.72;100.00
50242;BME280;36126;43.222;27.874;2022-07-15T01:00:30;101081.50;;;18.74;100.00
50242;BME280;36126;43.222;27.874;2022-07-15T01:02:58;101055.31;;;18.53;100.00
50242;BME280;36126;43.222;27.874;2022-07-15T01:05:24;101078.06;;;18.31;100.00
50242;BME280;36126;43.222;27.874;2022-07-15T01:07:50;101066.53;;;18.12;100.00
50242;BME280;36126;43.222;27.874;2022-07-15T01:10:17;101070.19;;;18.12;100.00
50242;BME280;36126;43.222;27.874;2022-07-15T01:12:45;101056.41;;;18.11;100.00
50242;BME280;36126;43.222;27.874;2022-07-15T01:15:12;101069.59;;;18.10;100.00
50242;BME280;36126;43.222;27.874;2022-07-15T01:17:38;101054.41;;;18.06;100.00
50242;BME280;36126;43.222;27.874;2022-07-15T01:20:04;101065.16;;;18.30;100.00
50242;BME280;36126;43.222;27.874;2022-07-15T01:22:30;101065.41;;;18.28;100.00
50242;BME280;36126;43.222;27.874;2022-07-15T01:24:56;101062.31;;;18.50;100.00
50242;BME280;36126;43.222;27.874;2022-07-15T01:27:21;101050.22;;;18.24;100.00
50242;BME280;36126;43.222;27.874;2022-07-15T01:29:47;101032.50;;;18.13;100.00
50242;BME280;36126;43.222;27.874;2022-07-15T01:32:12;101064.59;;;18.38;100.00
50242;BME280;36126;43.222;27.874;2022-07-15T01:34:38;101075.28;;;18.41;100.00
50242;BME280;36126;43.222;27.874;2022-07-15T01:37:04;101056.16;;;18.43;100.00
50242;BME280;36126;43.222;27.874;2022-07-15T01:39:30;101065.44;;;18.33;100.00
50242;BME280;36126;43.222;27.874;2022-07-15T01:41:55;101062.63;;;18.39;100.00
50242;BME280;36126;43.222;27.874;2022-07-15T01:44:21;101058.09;;;18.32;100.00
50242;BME280;36126;43.222;27.874;2022-07-15T01:46:47;101057.00;;;18.23;100.00
50242;BME280;36126;43.222;27.874;2022-07-15T01:49:12;101062.56;;;18.13;100.00
50242;BME280;36126;43.222;27.874;2022-07-15T01:51:47;101052.19;;;18.18;100.00
50242;BME280;36126;43.222;27.874;2022-07-15T01:54:13;101035.28;;;18.03;100.00
50242;BME280;36126;43.222;27.874;2022-07-15T01:56:38;101043.72;;;18.03;100.00
50242;BME280;36126;43.222;27.874;2022-07-15T01:59:04;101050.75;;;18.16;100.00
50242;BME280;36126;43.222;27.874;2022-07-15T02:01:30;101056.13;;;18.12;100.00
50242;BME280;36126;43.222;27.874;2022-07-15T02:03:55;101046.84;;;18.12;100.00
50242;BME280;36126;43.222;27.874;2022-07-15T02:06:21;101055.00;;;18.18;100.00
50242;BME280;36126;43.222;27.874;2022-07-15T02:08:48;101036.41;;;18.02;100.00
50242;BME280;36126;43.222;27.874;2022-07-15T02:11:13;101057.81;;;18.24;100.00
50242;BME280;36126;43.222;27.874;2022-07-15T02:13:39;101034.19;;;18.14;100.00
50242;BME280;36126;43.222;27.874;2022-07-15T02:16:04;101053.88;;;18.19;100.00
50242;BME280;36126;43.222;27.874;2022-07-15T02:18:30;101037.84;;;17.99;100.00
50242;BME280;36126;43.222;27.874;2022-07-15T02:20:56;101038.09;;;18.03;100.00
50242;BME280;36126;43.222;27.874;2022-07-15T02:23:22;101053.88;;;18.19;100.00
50242;BME280;36126;43.222;27.874;2022-07-15T02:25:47;101057.53;;;18.10;100.00
50242;BME280;36126;43.222;27.874;2022-07-15T02:28:13;101053.19;;;17.76;100.00
50242;BME280;36126;43.222;27.874;2022-07-15T02:30:40;101066.19;;;17.98;100.00
50242;BME280;36126;43.222;27.874;2022-07-15T02:33:06;101058.38;;;18.05;100.00
50242;BME280;36126;43.222;27.874;2022-07-15T02:35:32;101052.72;;;17.95;100.00
50242;BME280;36126;43.222;27.874;2022-07-15T02:37:58;101041.66;;;17.73;100.00
50242;BME280;36126;43.222;27.874;2022-07-15T02:40:25;101052.44;;;17.91;100.00
50242;BME280;36126;43.222;27.874;2022-07-15T02:42:52;101053.78;;;17.89;100.00
50242;BME280;36126;43.222;27.874;2022-07-15T02:45:20;101071.72;;;17.72;100.00
50242;BME280;36126;43.222;27.874;2022-07-15T02:47:46;101041.09;;;17.71;100.00
50242;BME280;36126;43.222;27.874;2022-07-15T02:50:12;101048.44;;;17.82;100.00
50242;BME280;36126;43.222;27.874;2022-07-15T02:52:37;101057.16;;;17.91;100.00
50242;BME280;36126;43.222;27.874;2022-07-15T02:55:04;101056.38;;;18.00;100.00
50242;BME280;36126;43.222;27.874;2022-07-15T02:57:30;101036.66;;;17.90;100.00
50242;BME280;36126;43.222;27.874;2022-07-15T02:59:56;101034.09;;;17.83;100.00
50242;BME280;36126;43.222;27.874;2022-07-15T03:02:21;101052.16;;;18.03;100.00
50242;BME280;36126;43.222;27.874;2022-07-15T03:04:47;101011.94;;;17.92;100.00
50242;BME280;36126;43.222;27.874;2022-07-15T03:07:13;101047.97;;;18.11;100.00
50242;BME280;36126;43.222;27.874;2022-07-15T03:09:39;101010.00;;;18.08;100.00
50242;BME280;36126;43.222;27.874;2022-07-15T03:12:05;101036.75;;;18.31;100.00
50242;BME280;36126;43.222;27.874;2022-07-15T03:14:30;101055.59;;;18.46;100.00
50242;BME280;36126;43.222;27.874;2022-07-15T03:16:56;101032.22;;;18.41;100.00
50242;BME280;36126;43.222;27.874;2022-07-15T03:19:21;101050.53;;;18.43;100.00
50242;BME280;36126;43.222;27.874;2022-07-15T03:21:47;101057.84;;;18.34;100.00
50242;BME280;36126;43.222;27.874;2022-07-15T03:24:16;101064.06;;;18.46;100.00
50242;BME280;36126;43.222;27.874;2022-07-15T03:26:42;101038.16;;;18.34;100.00
50242;BME280;36126;43.222;27.874;2022-07-15T03:29:07;101056.44;;;18.57;100.00
50242;BME280;36126;43.222;27.874;2022-07-15T03:31:33;101062.91;;;18.63;100.00
50242;BME280;36126;43.222;27.874;2022-07-15T03:33:59;101033.34;;;18.70;100.00
50242;BME280;36126;43.222;27.874;2022-07-15T03:36:24;101069.09;;;18.80;100.00
50242;BME280;36126;43.222;27.874;2022-07-15T03:38:50;101060.66;;;18.49;100.00
50242;BME280;36126;43.222;27.874;2022-07-15T03:41:20;101060.66;;;18.85;100.00
50242;BME280;36126;43.222;27.874;2022-07-15T03:47:08;101040.09;;;19.00;100.00
50242;BME280;36126;43.222;27.874;2022-07-15T03:49:33;101061.19;;;19.13;100.00
50242;BME280;36126;43.222;27.874;2022-07-15T03:51:59;101057.22;;;19.19;100.00
50242;BME280;36126;43.222;27.874;2022-07-15T03:54:24;101055.50;;;19.24;100.00
50242;BME280;36126;43.222;27.874;2022-07-15T03:56:50;101054.09;;;19.36;100.00
50242;BME280;36126;43.222;27.874;2022-07-15T03:59:16;101035.25;;;19.27;100.00
50242;BME280;36126;43.222;27.874;2022-07-15T04:01:43;101060.25;;;19.49;100.00
50242;BME280;36126;43.222;27.874;2022-07-15T04:04:08;101048.09;;;19.48;100.00
50242;BME280;36126;43.222;27.874;2022-07-15T04:06:34;101059.66;;;19.47;100.00
50242;BME280;36126;43.222;27.874;2022-07-15T04:09:00;101057.88;;;19.66;100.00
50242;BME280;36126;43.222;27.874;2022-07-15T04:11:26;101045.47;;;19.78;100.00
50242;BME280;36126;43.222;27.874;2022-07-15T04:13:51;101067.06;;;20.03;100.00
50242;BME280;36126;43.222;27.874;2022-07-15T04:16:17;101068.75;;;19.99;100.00
50242;BME280;36126;43.222;27.874;2022-07-15T04:18:43;101072.06;;;20.16;100.00
50242;BME280;36126;43.222;27.874;2022-07-15T04:21:09;101053.03;;;20.27;100.00
50242;BME280;36126;43.222;27.874;2022-07-15T04:23:35;101074.06;;;20.45;100.00
50242;BME280;36126;43.222;27.874;2022-07-15T04:26:01;101072.91;;;20.51;100.00
50242;BME280;36126;43.222;27.874;2022-07-15T04:28:27;101055.72;;;20.48;100.00
50242;BME280;36126;43.222;27.874;2022-07-15T04:30:52;101046.75;;;20.41;100.00
50242;BME280;36126;43.222;27.874;2022-07-15T04:33:18;101074.47;;;21.02;100.00
50242;BME280;36126;43.222;27.874;2022-07-15T04:35:45;101073.69;;;22.70;100.00
50242;BME280;36126;43.222;27.874;2022-07-15T04:38:10;101061.44;;;24.27;100.00
50242;BME280;36126;43.222;27.874;2022-07-15T04:40:36;101067.16;;;25.67;100.00
50242;BME280;36126;43.222;27.874;2022-07-15T04:43:04;101082.09;;;27.22;95.43
50242;BME280;36126;43.222;27.874;2022-07-15T04:45:30;101086.44;;;28.47;86.26
50242;BME280;36126;43.222;27.874;2022-07-15T04:47:55;101077.47;;;29.25;81.01
50242;BME280;36126;43.222;27.874;2022-07-15T04:50:21;101072.06;;;30.47;72.33
50242;BME280;36126;43.222;27.874;2022-07-15T04:53:07;101078.84;;;31.27;67.19
50242;BME280;36126;43.222;27.874;2022-07-15T04:55:32;101081.25;;;31.89;62.92
50242;BME280;36126;43.222;27.874;2022-07-15T04:57:58;101077.19;;;31.42;65.06
50242;BME280;36126;43.222;27.874;2022-07-15T05:00:24;101089.97;;;32.12;61.23
50242;BME280;36126;43.222;27.874;2022-07-15T05:02:50;101082.47;;;33.02;57.79
50242;BME280;36126;43.222;27.874;2022-07-15T05:05:15;101084.81;;;33.62;53.98
50242;BME280;36126;43.222;27.874;2022-07-15T05:07:41;101083.94;;;33.81;53.59
50242;BME280;36126;43.222;27.874;2022-07-15T05:10:08;101079.03;;;34.12;50.83
50242;BME280;36126;43.222;27.874;2022-07-15T05:12:35;101081.09;;;34.12;49.94
50242;BME280;36126;43.222;27.874;2022-07-15T05:15:01;101082.41;;;34.45;49.92
50242;BME280;36126;43.222;27.874;2022-07-15T05:17:27;101077.38;;;35.06;48.51
50242;BME280;36126;43.222;27.874;2022-07-15T05:19:52;101080.00;;;34.81;48.10
50242;BME280;36126;43.222;27.874;2022-07-15T05:22:19;101075.91;;;34.51;48.57
50242;BME280;36126;43.222;27.874;2022-07-15T05:24:45;101052.19;;;34.04;49.35
50242;BME280;36126;43.222;27.874;2022-07-15T05:27:11;101073.34;;;33.89;50.02
50242;BME280;36126;43.222;27.874;2022-07-15T05:29:36;101072.41;;;33.35;52.57
50242;BME280;36126;43.222;27.874;2022-07-15T05:32:02;101073.28;;;34.39;49.83
50242;BME280;36126;43.222;27.874;2022-07-15T05:34:27;101077.50;;;34.18;50.31
50242;BME280;36126;43.222;27.874;2022-07-15T05:36:53;101064.84;;;34.57;49.43
50242;BME280;36126;43.222;27.874;2022-07-15T05:39:19;101085.53;;;35.34;47.87
50242;BME280;36126;43.222;27.874;2022-07-15T05:41:44;101073.94;;;34.93;48.34
50242;BME280;36126;43.222;27.874;2022-07-15T05:44:10;101064.44;;;35.79;45.64
50242;BME280;36126;43.222;27.874;2022-07-15T05:46:35;101078.16;;;35.40;47.16
50242;BME280;36126;43.222;27.874;2022-07-15T05:49:01;101074.31;;;36.33;45.17
50242;BME280;36126;43.222;27.874;2022-07-15T05:51:27;101075.63;;;36.47;44.41
50242;BME280;36126;43.222;27.874;2022-07-15T05:53:52;101072.13;;;37.22;42.78
50242;BME280;36126;43.222;27.874;2022-07-15T05:56:18;101073.41;;;37.35;41.63
50242;BME280;36126;43.222;27.874;2022-07-15T05:58:44;101062.25;;;37.44;41.67
50242;BME280;36126;43.222;27.874;2022-07-15T06:01:09;101060.50;;;38.26;39.69
50242;BME280;36126;43.222;27.874;2022-07-15T06:03:35;101059.19;;;39.23;37.89
50242;BME280;36126;43.222;27.874;2022-07-15T06:06:02;101055.94;;;39.14;37.51
50242;BME280;36126;43.222;27.874;2022-07-15T06:08:28;101059.34;;;38.98;37.63
50242;BME280;36126;43.222;27.874;2022-07-15T06:10:54;101036.25;;;39.85;35.56
50242;BME280;36126;43.222;27.874;2022-07-15T06:13:19;101048.13;;;39.56;35.94
50242;BME280;36126;43.222;27.874;2022-07-15T06:15:46;101054.84;;;40.68;34.43
50242;BME280;36126;43.222;27.874;2022-07-15T06:18:11;101043.13;;;39.64;35.22
50242;BME280;36126;43.222;27.874;2022-07-15T06:20:37;101059.75;;;40.40;33.96
50242;BME280;36126;43.222;27.874;2022-07-15T06:23:02;101063.28;;;40.58;34.00
50242;BME280;36126;43.222;27.874;2022-07-15T06:25:28;101051.03;;;40.40;33.43
50242;BME280;36126;43.222;27.874;2022-07-15T06:27:53;101038.59;;;40.70;33.00
50242;BME280;36126;43.222;27.874;2022-07-15T06:30:19;101043.97;;;40.37;32.31
50242;BME280;36126;43.222;27.874;2022-07-15T06:32:44;101040.06;;;38.59;33.74
50242;BME280;36126;43.222;27.874;2022-07-15T06:35:10;101045.81;;;38.73;33.92
50242;BME280;36126;43.222;27.874;2022-07-15T06:37:37;101048.53;;;40.38;32.38
50242;BME280;36126;43.222;27.874;2022-07-15T06:40:02;101051.47;;;39.96;33.44
50242;BME280;36126;43.222;27.874;2022-07-15T06:42:28;101041.97;;;41.47;31.57
50242;BME280;36126;43.222;27.874;2022-07-15T06:44:54;101036.09;;;42.58;29.54
50242;BME280;36126;43.222;27.874;2022-07-15T06:47:19;101042.75;;;41.24;30.65
50242;BME280;36126;43.222;27.874;2022-07-15T06:49:46;101037.06;;;42.31;30.20
50242;BME280;36126;43.222;27.874;2022-07-15T06:52:12;101051.38;;;44.31;28.51
50242;BME280;36126;43.222;27.874;2022-07-15T06:54:37;101056.53;;;44.82;28.76
50242;BME280;36126;43.222;27.874;2022-07-15T06:57:03;101046.28;;;45.64;28.29
50242;BME280;36126;43.222;27.874;2022-07-15T06:59:28;101042.09;;;45.39;28.78
50242;BME280;36126;43.222;27.874;2022-07-15T07:01:54;101036.03;;;45.08;28.26
50242;BME280;36126;43.222;27.874;2022-07-15T07:04:21;101029.59;;;42.71;30.58
50242;BME280;36126;43.222;27.874;2022-07-15T07:06:46;101039.69;;;39.73;36.42
50242;BME280;36126;43.222;27.874;2022-07-15T07:09:12;101033.28;;;38.91;39.03
50242;BME280;36126;43.222;27.874;2022-07-15T07:11:38;101029.09;;;37.67;40.04
50242;BME280;36126;43.222;27.874;2022-07-15T07:14:05;101029.69;;;36.34;39.62
50242;BME280;36126;43.222;27.874;2022-07-15T07:16:31;101033.69;;;35.52;41.69
50242;BME280;36126;43.222;27.874;2022-07-15T07:18:56;101032.72;;;34.58;42.44
50242;BME280;36126;43.222;27.874;2022-07-15T07:21:22;101028.97;;;33.94;46.55
50242;BME280;36126;43.222;27.874;2022-07-15T07:23:48;101033.97;;;33.73;45.63
50242;BME280;36126;43.222;27.874;2022-07-15T07:26:14;101028.13;;;33.20;47.69
50242;BME280;36126;43.222;27.874;2022-07-15T07:28:40;101020.47;;;33.04;49.66
50242;BME280;36126;43.222;27.874;2022-07-15T07:31:07;101005.31;;;32.84;47.71
50242;BME280;36126;43.222;27.874;2022-07-15T07:33:33;101020.97;;;32.87;52.17
50242;BME280;36126;43.222;27.874;2022-07-15T07:35:59;101005.44;;;32.92;52.42
50242;BME280;36126;43.222;27.874;2022-07-15T07:38:25;101018.63;;;32.73;50.99
50242;BME280;36126;43.222;27.874;2022-07-15T07:40:50;100993.97;;;32.72;51.03
50242;BME280;36126;43.222;27.874;2022-07-15T07:43:17;101013.88;;;33.04;62.69
50242;BME280;36126;43.222;27.874;2022-07-15T07:45:43;101018.34;;;33.01;65.47
50242;BME280;36126;43.222;27.874;2022-07-15T07:48:09;101007.63;;;32.98;60.26
50242;BME280;36126;43.222;27.874;2022-07-15T07:50:34;101014.75;;;32.85;58.69
50242;BME280;36126;43.222;27.874;2022-07-15T07:53:00;101024.09;;;32.59;59.64
50242;BME280;36126;43.222;27.874;2022-07-15T07:55:26;101002.22;;;32.34;69.90
50242;BME280;36126;43.222;27.874;2022-07-15T07:57:54;101014.31;;;32.63;62.69
50242;BME280;36126;43.222;27.874;2022-07-15T08:00:21;101014.47;;;32.51;62.71
50242;BME280;36126;43.222;27.874;2022-07-15T08:02:48;101000.44;;;32.69;65.00
50242;BME280;36126;43.222;27.874;2022-07-15T08:05:14;101004.75;;;32.98;61.95
50242;BME280;36126;43.222;27.874;2022-07-15T08:07:41;101017.38;;;33.17;62.62
50242;BME280;36126;43.222;27.874;2022-07-15T08:10:08;101012.03;;;33.38;59.65
50242;BME280;36126;43.222;27.874;2022-07-15T08:12:34;101010.06;;;33.43;55.33
50242;BME280;36126;43.222;27.874;2022-07-15T08:14:59;101011.50;;;33.56;53.23
50242;BME280;36126;43.222;27.874;2022-07-15T08:17:25;101004.72;;;33.45;51.88
50242;BME280;36126;43.222;27.874;2022-07-15T08:19:51;101002.50;;;33.34;52.15
50242;BME280;36126;43.222;27.874;2022-07-15T08:25:38;100997.69;;;33.42;51.94
50242;BME280;36126;43.222;27.874;2022-07-15T08:28:06;101004.34;;;33.00;52.91
50242;BME280;36126;43.222;27.874;2022-07-15T08:30:32;101000.97;;;33.17;52.89
50242;BME280;36126;43.222;27.874;2022-07-15T08:33:01;101009.97;;;33.16;53.34
50242;BME280;36126;43.222;27.874;2022-07-15T08:35:27;100990.88;;;33.27;51.02
50242;BME280;36126;43.222;27.874;2022-07-15T08:37:53;100999.03;;;33.48;51.77
50242;BME280;36126;43.222;27.874;2022-07-15T08:40:19;100998.84;;;33.64;52.18
50242;BME280;36126;43.222;27.874;2022-07-15T08:42:44;100993.59;;;33.43;52.06
50242;BME280;36126;43.222;27.874;2022-07-15T08:45:13;100994.81;;;33.42;53.12
50242;BME280;36126;43.222;27.874;2022-07-15T08:47:41;100995.66;;;33.43;53.26
50242;BME280;36126;43.222;27.874;2022-07-15T08:50:09;100983.63;;;33.14;50.07
50242;BME280;36126;43.222;27.874;2022-07-15T08:52:37;100992.38;;;32.98;48.85
50242;BME280;36126;43.222;27.874;2022-07-15T08:55:05;100984.75;;;32.43;50.92
50242;BME280;36126;43.222;27.874;2022-07-15T08:57:31;100993.28;;;32.00;51.93
50242;BME280;36126;43.222;27.874;2022-07-15T08:59:57;100994.94;;;32.01;55.25
50242;BME280;36126;43.222;27.874;2022-07-15T09:02:23;100985.19;;;31.86;54.12
50242;BME280;36126;43.222;27.874;2022-07-15T09:10:22;100991.09;;;31.42;53.53
50242;BME280;36126;43.222;27.874;2022-07-15T09:12:49;100991.34;;;31.37;54.67
50242;BME280;36126;43.222;27.874;2022-07-15T09:15:34;100988.31;;;31.30;57.19
50242;BME280;36126;43.222;27.874;2022-07-15T09:18:12;100972.47;;;31.36;54.84
50242;BME280;36126;43.222;27.874;2022-07-15T09:20:39;100981.81;;;31.33;52.62
50242;BME280;36126;43.222;27.874;2022-07-15T09:23:06;100978.31;;;31.24;57.38
50242;BME280;36126;43.222;27.874;2022-07-15T09:25:33;100993.41;;;31.36;57.29
50242;BME280;36126;43.222;27.874;2022-07-15T09:28:01;100987.78;;;31.24;56.29
50242;BME280;36126;43.222;27.874;2022-07-15T09:30:31;100998.19;;;31.48;52.74
50242;BME280;36126;43.222;27.874;2022-07-15T09:33:18;100994.41;;;31.60;54.90
50242;BME280;36126;43.222;27.874;2022-07-15T09:41:07;100979.63;;;31.10;70.49
50242;BME280;36126;43.222;27.874;2022-07-15T09:43:43;100980.06;;;31.60;68.74
50242;BME280;36126;43.222;27.874;2022-07-15T09:46:09;100977.94;;;31.41;73.03
50242;BME280;36126;43.222;27.874;2022-07-15T09:48:39;100974.41;;;31.00;83.82
50242;BME280;36126;43.222;27.874;2022-07-15T09:51:05;100983.97;;;31.04;80.20
50242;BME280;36126;43.222;27.874;2022-07-15T09:53:31;100977.09;;;30.93;72.16
50242;BME280;36126;43.222;27.874;2022-07-15T09:55:58;100983.69;;;31.09;86.79
50242;BME280;36126;43.222;27.874;2022-07-15T09:58:25;100975.03;;;30.93;82.27
50242;BME280;36126;43.222;27.874;2022-07-15T10:00:51;100969.03;;;30.98;90.09
50242;BME280;36126;43.222;27.874;2022-07-15T10:03:19;100974.75;;;30.66;83.02
50242;BME280;36126;43.222;27.874;2022-07-15T10:05:50;100969.91;;;30.55;88.86
50242;BME280;36126;43.222;27.874;2022-07-15T10:08:17;100972.16;;;30.33;89.42
50242;BME280;36126;43.222;27.874;2022-07-15T10:10:43;100971.50;;;30.40;87.62
50242;BME280;36126;43.222;27.874;2022-07-15T10:19:23;100966.84;;;30.19;88.41
50242;BME280;36126;43.222;27.874;2022-07-15T10:25:17;100975.22;;;30.12;71.71
50242;BME280;36126;43.222;27.874;2022-07-15T10:28:12;100976.56;;;30.02;79.84
50242;BME280;36126;43.222;27.874;2022-07-15T10:30:42;100970.75;;;29.98;76.97
50242;BME280;36126;43.222;27.874;2022-07-15T10:33:16;100958.72;;;30.21;75.11
50242;BME280;36126;43.222;27.874;2022-07-15T10:38:34;100955.03;;;30.36;71.60
50242;BME280;36126;43.222;27.874;2022-07-15T10:41:11;100968.19;;;30.38;66.83
50242;BME280;36126;43.222;27.874;2022-07-15T10:43:44;100903.41;;;30.05;76.09
50242;BME280;36126;43.222;27.874;2022-07-15T10:46:17;100957.25;;;30.27;72.37
50242;BME280;36126;43.222;27.874;2022-07-15T10:51:09;100960.38;;;30.22;82.25
50242;BME280;36126;43.222;27.874;2022-07-15T10:53:46;100960.50;;;29.85;93.31
50242;BME280;36126;43.222;27.874;2022-07-15T10:59:18;100957.53;;;29.69;97.53
50242;BME280;36126;43.222;27.874;2022-07-15T11:04:28;100953.84;;;29.56;100.00
50242;BME280;36126;43.222;27.874;2022-07-15T11:09:45;100953.47;;;29.70;100.00
50242;BME280;36126;43.222;27.874;2022-07-15T11:12:10;100945.09;;;29.90;98.94
50242;BME280;36126;43.222;27.874;2022-07-15T11:14:42;100936.56;;;29.52;100.00
50242;BME280;36126;43.222;27.874;2022-07-15T11:17:10;100950.41;;;29.50;86.96
50242;BME280;36126;43.222;27.874;2022-07-15T11:19:36;100952.88;;;29.64;99.29
50242;BME280;36126;43.222;27.874;2022-07-15T11:22:01;100941.94;;;29.66;100.00
50242;BME280;36126;43.222;27.874;2022-07-15T11:24:28;100946.09;;;29.44;98.70
50242;BME280;36126;43.222;27.874;2022-07-15T11:26:54;100946.56;;;29.71;100.00
50242;BME280;36126;43.222;27.874;2022-07-15T11:29:20;100947.97;;;29.77;99.63
50242;BME280;36126;43.222;27.874;2022-07-15T11:31:47;100925.91;;;29.78;100.00
50242;BME280;36126;43.222;27.874;2022-07-15T11:34:13;100941.19;;;29.69;100.00
50242;BME280;36126;43.222;27.874;2022-07-15T11:36:39;100948.31;;;29.88;100.00
50242;BME280;36126;43.222;27.874;2022-07-15T11:39:04;100952.75;;;29.73;100.00
50242;BME280;36126;43.222;27.874;2022-07-15T11:41:30;100939.38;;;29.90;100.00
50242;BME280;36126;43.222;27.874;2022-07-15T11:44:14;100944.03;;;29.94;93.22
50242;BME280;36126;43.222;27.874;2022-07-15T11:46:55;100948.09;;;29.68;86.67
50242;BME280;36126;43.222;27.874;2022-07-15T11:51:53;100942.19;;;30.30;86.37
50242;BME280;36126;43.222;27.874;2022-07-15T11:54:20;100944.88;;;30.23;80.81
50242;BME280;36126;43.222;27.874;2022-07-15T11:56:55;100941.44;;;29.64;79.53
50242;BME280;36126;43.222;27.874;2022-07-15T11:59:21;100937.06;;;29.42;81.71
50242;BME280;36126;43.222;27.874;2022-07-15T12:01:47;100939.13;;;29.29;80.20
50242;BME280;36126;43.222;27.874;2022-07-15T12:04:14;100930.25;;;29.22;80.76
50242;BME280;36126;43.222;27.874;2022-07-15T12:06:39;100926.19;;;28.98;84.47
50242;BME280;36126;43.222;27.874;2022-07-15T12:09:06;100908.69;;;29.37;86.71
50242;BME280;36126;43.222;27.874;2022-07-15T12:11:38;100931.81;;;29.44;86.62
50242;BME280;36126;43.222;27.874;2022-07-15T12:14:06;100935.38;;;29.16;88.43
50242;BME280;36126;43.222;27.874;2022-07-15T12:16:44;100930.97;;;29.19;86.85
50242;BME280;36126;43.222;27.874;2022-07-15T12:19:16;100927.38;;;29.10;93.74
50242;BME280;36126;43.222;27.874;2022-07-15T12:21:43;100930.38;;;29.50;94.38
50242;BME280;36126;43.222;27.874;2022-07-15T12:24:20;100926.06;;;29.57;91.61
50242;BME280;36126;43.222;27.874;2022-07-15T12:29:16;100929.03;;;29.60;96.36
50242;BME280;36126;43.222;27.874;2022-07-15T12:31:50;100915.13;;;29.46;100.00
50242;BME280;36126;43.222;27.874;2022-07-15T12:34:16;100924.06;;;29.45;100.00
50242;BME280;36126;43.222;27.874;2022-07-15T12:36:41;100901.53;;;29.06;100.00
50242;BME280;36126;43.222;27.874;2022-07-15T12:41:33;100894.00;;;29.14;100.00
50242;BME280;36126;43.222;27.874;2022-07-15T12:44:00;100898.47;;;29.11;100.00
50242;BME280;36126;43.222;27.874;2022-07-15T12:47:05;100926.72;;;29.38;100.00
50242;BME280;36126;43.222;27.874;2022-07-15T12:49:51;100888.66;;;29.00;100.00
50242;BME280;36126;43.222;27.874;2022-07-15T12:54:50;100910.25;;;28.97;100.00
50242;BME280;36126;43.222;27.874;2022-07-15T12:57:31;100897.13;;;29.09;100.00
50242;BME280;36126;43.222;27.874;2022-07-15T13:03:09;100925.38;;;29.47;98.81
50242;BME280;36126;43.222;27.874;2022-07-15T13:08:03;100925.66;;;29.71;100.00
50242;BME280;36126;43.222;27.874;2022-07-15T13:10:29;100921.91;;;29.54;100.00
50242;BME280;36126;43.222;27.874;2022-07-15T13:12:55;100923.06;;;29.65;100.00
50242;BME280;36126;43.222;27.874;2022-07-15T13:15:21;100929.38;;;29.71;100.00
50242;BME280;36126;43.222;27.874;2022-07-15T13:17:46;100922.59;;;29.63;100.00
50242;BME280;36126;43.222;27.874;2022-07-15T13:20:12;100917.84;;;29.55;100.00
50242;BME280;36126;43.222;27.874;2022-07-15T13:22:38;100917.75;;;29.14;100.00
50242;BME280;36126;43.222;27.874;2022-07-15T13:25:04;100921.56;;;29.18;100.00
50242;BME280;36126;43.222;27.874;2022-07-15T13:27:30;100929.19;;;29.14;100.00
50242;BME280;36126;43.222;27.874;2022-07-15T13:29:55;100915.34;;;29.04;100.00
50242;BME280;36126;43.222;27.874;2022-07-15T13:32:21;100895.25;;;29.00;100.00